sensor_id;sensor_type;location;lat;lon;timestamp;pressure;altitude;pressure_sealevel;temperature;humidity
28354;BME280;15603;50.878;8.036;2024-02-26T00:02:25;142463.88;;;-3.43;97.90
28354;BME280;15603;50.878;8.036;2024-02-26T00:04:52;142466.31;;;-3.42;98.83
28354;BME280;15603;50.878;8.036;2024-02-26T00:07:19;142466.31;;;-3.42;98.06
28354;BME280;15603;50.878;8.036;2024-02-26T00:09:46;142360.47;;;-3.87;97.96
28354;BME280;15603;50.878;8.036;2024-02-26T00:12:13;142425.44;;;-3.59;97.93
28354;BME280;15603;50.878;8.036;2024-02-26T00:14:40;142484.34;;;-3.34;98.16
28354;BME280;15603;50.878;8.036;2024-02-26T00:17:08;142454.25;;;-3.47;97.62
28354;BME280;15603;50.878;8.036;2024-02-26T00:19:35;142391.75;;;-3.73;97.02
28354;BME280;15603;50.878;8.036;2024-02-26T00:22:03;142474.72;;;-3.38;96.98
28354;BME280;15603;50.878;8.036;2024-02-26T00:24:30;142461.50;;;-3.44;96.36
28354;BME280;15603;50.878;8.036;2024-02-26T00:26:57;142478.34;;;-3.37;97.12
28354;BME280;15603;50.878;8.036;2024-02-26T00:29:24;142483.16;;;-3.34;95.51
28354;BME280;15603;50.878;8.036;2024-02-26T00:31:52;142492.75;;;-3.30;94.72
28354;BME280;15603;50.878;8.036;2024-02-26T00:34:20;142471.13;;;-3.40;95.59
28354;BME280;15603;50.878;8.036;2024-02-26T00:36:47;142483.16;;;-3.34;96.17
28354;BME280;15603;50.878;8.036;2024-02-26T00:39:14;142475.91;;;-3.38;95.89
28354;BME280;15603;50.878;8.036;2024-02-26T00:41:42;142473.53;;;-3.39;96.10
28354;BME280;15603;50.878;8.036;2024-02-26T00:44:09;142469.91;;;-3.40;95.34
28354;BME280;15603;50.878;8.036;2024-02-26T00:46:37;142492.75;;;-3.30;95.44
28354;BME280;15603;50.878;8.036;2024-02-26T00:49:04;142362.91;;;-3.86;95.02
28354;BME280;15603;50.878;8.036;2024-02-26T00:51:31;142483.16;;;-3.34;95.18
28354;BME280;15603;50.878;8.036;2024-02-26T00:53:59;142496.38;;;-3.29;95.58
28354;BME280;15603;50.878;8.036;2024-02-26T00:56:26;142524.03;;;-3.17;94.32
28354;BME280;15603;50.878;8.036;2024-02-26T00:58:53;142520.41;;;-3.19;94.95
28354;BME280;15603;50.878;8.036;2024-02-26T01:01:20;142519.22;;;-3.19;95.18
28354;BME280;15603;50.878;8.036;2024-02-26T01:03:47;142512.00;;;-3.22;93.67
28354;BME280;15603;50.878;8.036;2024-02-26T01:06:15;142439.84;;;-3.53;93.09
28354;BME280;15603;50.878;8.036;2024-02-26T01:08:42;142501.19;;;-3.27;93.73
28354;BME280;15603;50.878;8.036;2024-02-26T01:11:09;142534.84;;;-3.12;93.33
28354;BME280;15603;50.878;8.036;2024-02-26T01:13:37;142531.22;;;-3.14;93.50
28354;BME280;15603;50.878;8.036;2024-02-26T01:16:04;142478.34;;;-3.37;93.48
28354;BME280;15603;50.878;8.036;2024-02-26T01:18:31;142538.47;;;-3.11;93.52
28354;BME280;15603;50.878;8.036;2024-02-26T01:20:59;142550.50;;;-3.06;93.36
28354;BME280;15603;50.878;8.036;2024-02-26T01:23:26;142540.84;;;-3.10;93.12
28354;BME280;15603;50.878;8.036;2024-02-26T01:25:53;142537.28;;;-3.11;93.43
28354;BME280;15603;50.878;8.036;2024-02-26T01:28:20;142539.66;;;-3.10;93.08
28354;BME280;15603;50.878;8.036;2024-02-26T01:30:47;142502.38;;;-3.26;92.90
28354;BME280;15603;50.878;8.036;2024-02-26T01:33:14;142538.47;;;-3.11;93.02
28354;BME280;15603;50.878;8.036;2024-02-26T01:35:42;142487.97;;;-3.32;93.77
28354;BME280;15603;50.878;8.036;2024-02-26T01:38:09;142504.75;;;-3.25;93.48
28354;BME280;15603;50.878;8.036;2024-02-26T01:40:36;142556.50;;;-3.03;93.56
28354;BME280;15603;50.878;8.036;2024-02-26T01:43:03;142551.69;;;-3.05;93.64
28354;BME280;15603;50.878;8.036;2024-02-26T01:45:30;142562.50;;;-3.01;93.33
28354;BME280;15603;50.878;8.036;2024-02-26T01:47:58;142562.50;;;-3.01;92.79
28354;BME280;15603;50.878;8.036;2024-02-26T01:50:26;142497.56;;;-3.28;92.54
28354;BME280;15603;50.878;8.036;2024-02-26T01:52:55;142525.22;;;-3.17;93.07
28354;BME280;15603;50.878;8.036;2024-02-26T01:55:23;142569.75;;;-2.98;93.51
28354;BME280;15603;50.878;8.036;2024-02-26T01:57:51;142552.88;;;-3.05;95.39
28354;BME280;15603;50.878;8.036;2024-02-26T02:00:20;142557.69;;;-3.03;95.34
28354;BME280;15603;50.878;8.036;2024-02-26T02:02:49;142533.66;;;-3.13;96.41
28354;BME280;15603;50.878;8.036;2024-02-26T02:05:18;142540.84;;;-3.10;96.82
28354;BME280;15603;50.878;8.036;2024-02-26T02:07:47;142436.22;;;-3.55;97.46
28354;BME280;15603;50.878;8.036;2024-02-26T02:10:16;142543.28;;;-3.09;97.36
28354;BME280;15603;50.878;8.036;2024-02-26T02:12:45;142543.28;;;-3.09;96.66
28354;BME280;15603;50.878;8.036;2024-02-26T02:15:12;142554.06;;;-3.04;97.57
28354;BME280;15603;50.878;8.036;2024-02-26T02:17:39;142543.28;;;-3.09;98.17
28354;BME280;15603;50.878;8.036;2024-02-26T02:20:15;142531.22;;;-3.14;98.67
28354;BME280;15603;50.878;8.036;2024-02-26T02:22:46;142521.59;;;-3.18;99.23
28354;BME280;15603;50.878;8.036;2024-02-26T02:25:13;142512.00;;;-3.22;100.00
28354;BME280;15603;50.878;8.036;2024-02-26T02:27:41;142514.41;;;-3.21;99.98
28354;BME280;15603;50.878;8.036;2024-02-26T02:30:10;142509.63;;;-3.23;100.00
28354;BME280;15603;50.878;8.036;2024-02-26T02:32:39;142501.19;;;-3.27;100.00
28354;BME280;15603;50.878;8.036;2024-02-26T02:35:08;142509.63;;;-3.23;100.00
28354;BME280;15603;50.878;8.036;2024-02-26T02:37:35;142531.22;;;-3.14;99.19
28354;BME280;15603;50.878;8.036;2024-02-26T02:40:02;142519.22;;;-3.19;99.75
28354;BME280;15603;50.878;8.036;2024-02-26T02:42:29;142503.56;;;-3.26;99.98
28354;BME280;15603;50.878;8.036;2024-02-26T02:44:57;142465.13;;;-3.42;100.00
28354;BME280;15603;50.878;8.036;2024-02-26T02:47:24;142489.16;;;-3.32;100.00
28354;BME280;15603;50.878;8.036;2024-02-26T02:49:51;142507.19;;;-3.24;100.00
28354;BME280;15603;50.878;8.036;2024-02-26T02:52:18;142506.00;;;-3.25;99.20
28354;BME280;15603;50.878;8.036;2024-02-26T02:54:45;142513.19;;;-3.22;99.22
28354;BME280;15603;50.878;8.036;2024-02-26T02:57:13;142501.19;;;-3.27;99.50
28354;BME280;15603;50.878;8.036;2024-02-26T02:59:40;142498.75;;;-3.28;99.83
28354;BME280;15603;50.878;8.036;2024-02-26T03:02:08;142495.16;;;-3.29;100.00
28354;BME280;15603;50.878;8.036;2024-02-26T03:04:35;142496.38;;;-3.29;99.69
28354;BME280;15603;50.878;8.036;2024-02-26T03:07:02;142506.00;;;-3.25;99.09
28354;BME280;15603;50.878;8.036;2024-02-26T03:09:30;142502.38;;;-3.26;99.55
28354;BME280;15603;50.878;8.036;2024-02-26T03:11:57;142503.56;;;-3.26;99.68
28354;BME280;15603;50.878;8.036;2024-02-26T03:14:25;142507.19;;;-3.24;99.43
28354;BME280;15603;50.878;8.036;2024-02-26T03:16:55;142502.38;;;-3.26;100.00
28354;BME280;15603;50.878;8.036;2024-02-26T03:19:22;142478.34;;;-3.37;100.00
28354;BME280;15603;50.878;8.036;2024-02-26T03:21:50;142415.81;;;-3.63;100.00
28354;BME280;15603;50.878;8.036;2024-02-26T03:24:17;142478.34;;;-3.37;100.00
28354;BME280;15603;50.878;8.036;2024-02-26T03:26:44;142502.38;;;-3.26;99.95
28354;BME280;15603;50.878;8.036;2024-02-26T03:29:11;142507.19;;;-3.24;99.34
28354;BME280;15603;50.878;8.036;2024-02-26T03:31:38;142496.38;;;-3.29;99.14
28354;BME280;15603;50.878;8.036;2024-02-26T03:34:05;142510.81;;;-3.23;99.95
28354;BME280;15603;50.878;8.036;2024-02-26T03:36:33;142513.19;;;-3.22;98.68
28354;BME280;15603;50.878;8.036;2024-02-26T03:39:00;142519.22;;;-3.19;98.35
28354;BME280;15603;50.878;8.036;2024-02-26T03:41:28;142536.03;;;-3.12;98.02
28354;BME280;15603;50.878;8.036;2024-02-26T03:43:55;142484.34;;;-3.34;98.41
28354;BME280;15603;50.878;8.036;2024-02-26T03:46:23;142533.66;;;-3.13;97.46
28354;BME280;15603;50.878;8.036;2024-02-26T03:48:50;142516.81;;;-3.20;98.79
28354;BME280;15603;50.878;8.036;2024-02-26T03:51:17;142551.69;;;-3.05;97.82
28354;BME280;15603;50.878;8.036;2024-02-26T03:53:45;142524.03;;;-3.17;98.63
28354;BME280;15603;50.878;8.036;2024-02-26T03:56:12;142545.69;;;-3.08;98.46
28354;BME280;15603;50.878;8.036;2024-02-26T03:58:42;142483.16;;;-3.34;98.83
28354;BME280;15603;50.878;8.036;2024-02-26T04:01:09;142519.22;;;-3.19;98.75
28354;BME280;15603;50.878;8.036;2024-02-26T04:03:37;142469.91;;;-3.40;100.00
28354;BME280;15603;50.878;8.036;2024-02-26T04:06:04;142457.88;;;-3.45;99.23
28354;BME280;15603;50.878;8.036;2024-02-26T04:08:32;142495.16;;;-3.29;99.16
28354;BME280;15603;50.878;8.036;2024-02-26T04:10:59;142497.56;;;-3.28;100.00
28354;BME280;15603;50.878;8.036;2024-02-26T04:13:27;142506.00;;;-3.25;100.00
28354;BME280;15603;50.878;8.036;2024-02-26T04:15:54;142512.00;;;-3.22;99.78
28354;BME280;15603;50.878;8.036;2024-02-26T04:18:21;142512.00;;;-3.22;99.44
28354;BME280;15603;50.878;8.036;2024-02-26T04:20:49;142509.63;;;-3.23;99.40
28354;BME280;15603;50.878;8.036;2024-02-26T04:23:18;142432.59;;;-3.56;99.55
28354;BME280;15603;50.878;8.036;2024-02-26T04:25:45;142509.63;;;-3.23;99.52
28354;BME280;15603;50.878;8.036;2024-02-26T04:28:12;142432.59;;;-3.56;99.35
28354;BME280;15603;50.878;8.036;2024-02-26T04:30:40;142507.19;;;-3.24;99.89
28354;BME280;15603;50.878;8.036;2024-02-26T04:33:07;142521.59;;;-3.18;99.40
28354;BME280;15603;50.878;8.036;2024-02-26T04:35:35;142418.19;;;-3.62;99.83
28354;BME280;15603;50.878;8.036;2024-02-26T04:38:02;142518.00;;;-3.20;99.46
28354;BME280;15603;50.878;8.036;2024-02-26T04:40:29;142516.81;;;-3.20;99.82
28354;BME280;15603;50.878;8.036;2024-02-26T04:42:56;142514.41;;;-3.21;99.89
28354;BME280;15603;50.878;8.036;2024-02-26T04:45:24;142497.56;;;-3.28;99.20
28354;BME280;15603;50.878;8.036;2024-02-26T04:47:51;142538.47;;;-3.11;98.34
28354;BME280;15603;50.878;8.036;2024-02-26T04:50:18;142528.84;;;-3.15;98.88
28354;BME280;15603;50.878;8.036;2024-02-26T04:52:45;142538.47;;;-3.11;99.70
28354;BME280;15603;50.878;8.036;2024-02-26T04:55:13;142548.06;;;-3.07;98.56
28354;BME280;15603;50.878;8.036;2024-02-26T04:57:40;142552.88;;;-3.05;98.78
28354;BME280;15603;50.878;8.036;2024-02-26T05:00:07;142534.84;;;-3.12;97.78
28354;BME280;15603;50.878;8.036;2024-02-26T05:02:35;142507.19;;;-3.24;98.54
28354;BME280;15603;50.878;8.036;2024-02-26T05:05:05;142497.56;;;-3.28;98.21
28354;BME280;15603;50.878;8.036;2024-02-26T05:07:33;142507.19;;;-3.24;99.58
28354;BME280;15603;50.878;8.036;2024-02-26T05:10:00;142364.09;;;-3.85;99.78
28354;BME280;15603;50.878;8.036;2024-02-26T05:12:27;142540.84;;;-3.10;100.00
28354;BME280;15603;50.878;8.036;2024-02-26T05:14:54;142487.97;;;-3.32;100.00
28354;BME280;15603;50.878;8.036;2024-02-26T05:17:21;142555.31;;;-3.04;99.66
28354;BME280;15603;50.878;8.036;2024-02-26T05:19:52;142549.25;;;-3.06;100.00
28354;BME280;15603;50.878;8.036;2024-02-26T05:22:19;142538.47;;;-3.11;100.00
28354;BME280;15603;50.878;8.036;2024-02-26T05:24:46;142537.28;;;-3.11;100.00
28354;BME280;15603;50.878;8.036;2024-02-26T05:27:13;142501.19;;;-3.27;99.68
28354;BME280;15603;50.878;8.036;2024-02-26T05:29:40;142495.16;;;-3.29;98.88
28354;BME280;15603;50.878;8.036;2024-02-26T05:32:08;142593.78;;;-2.87;97.60
28354;BME280;15603;50.878;8.036;2024-02-26T05:34:35;142495.16;;;-3.29;97.73
28354;BME280;15603;50.878;8.036;2024-02-26T05:37:02;142521.59;;;-3.18;98.74
28354;BME280;15603;50.878;8.036;2024-02-26T05:39:30;142497.56;;;-3.28;99.03
28354;BME280;15603;50.878;8.036;2024-02-26T05:41:57;142542.06;;;-3.09;99.47
28354;BME280;15603;50.878;8.036;2024-02-26T05:44:26;142550.50;;;-3.06;100.00
28354;BME280;15603;50.878;8.036;2024-02-26T05:46:53;142548.06;;;-3.07;100.00
28354;BME280;15603;50.878;8.036;2024-02-26T05:49:22;142522.81;;;-3.18;100.00
28354;BME280;15603;50.878;8.036;2024-02-26T05:51:49;142524.03;;;-3.17;100.00
28354;BME280;15603;50.878;8.036;2024-02-26T05:54:17;142524.03;;;-3.17;100.00
28354;BME280;15603;50.878;8.036;2024-02-26T05:56:44;142497.56;;;-3.28;100.00
28354;BME280;15603;50.878;8.036;2024-02-26T05:59:11;142499.94;;;-3.27;100.00
28354;BME280;15603;50.878;8.036;2024-02-26T06:01:38;142427.81;;;-3.58;100.00
28354;BME280;15603;50.878;8.036;2024-02-26T06:04:05;142483.16;;;-3.34;100.00
28354;BME280;15603;50.878;8.036;2024-02-26T06:06:33;142372.50;;;-3.82;100.00
28354;BME280;15603;50.878;8.036;2024-02-26T06:09:00;142450.66;;;-3.48;100.00
28354;BME280;15603;50.878;8.036;2024-02-26T06:11:28;142447.06;;;-3.50;100.00
28354;BME280;15603;50.878;8.036;2024-02-26T06:13:55;142456.69;;;-3.46;100.00
28354;BME280;15603;50.878;8.036;2024-02-26T06:16:22;142456.69;;;-3.46;100.00
28354;BME280;15603;50.878;8.036;2024-02-26T06:18:49;142411.00;;;-3.65;100.00
28354;BME280;15603;50.878;8.036;2024-02-26T06:21:16;142355.69;;;-3.89;100.00
28354;BME280;15603;50.878;8.036;2024-02-26T06:23:44;142376.13;;;-3.80;100.00
28354;BME280;15603;50.878;8.036;2024-02-26T06:26:11;142442.28;;;-3.52;100.00
28354;BME280;15603;50.878;8.036;2024-02-26T06:28:38;142456.69;;;-3.46;100.00
28354;BME280;15603;50.878;8.036;2024-02-26T06:31:07;142348.50;;;-3.92;100.00
28354;BME280;15603;50.878;8.036;2024-02-26T06:33:34;142455.50;;;-3.46;100.00
28354;BME280;15603;50.878;8.036;2024-02-26T06:36:02;142435.03;;;-3.55;100.00
28354;BME280;15603;50.878;8.036;2024-02-26T06:38:29;142433.84;;;-3.56;100.00
28354;BME280;15603;50.878;8.036;2024-02-26T06:40:57;142406.19;;;-3.67;100.00
28354;BME280;15603;50.878;8.036;2024-02-26T06:43:24;142439.84;;;-3.53;100.00
28354;BME280;15603;50.878;8.036;2024-02-26T06:45:51;142418.19;;;-3.62;100.00
28354;BME280;15603;50.878;8.036;2024-02-26T06:48:18;142433.84;;;-3.56;100.00
28354;BME280;15603;50.878;8.036;2024-02-26T06:50:45;142364.09;;;-3.85;100.00
28354;BME280;15603;50.878;8.036;2024-02-26T06:53:12;142420.63;;;-3.61;100.00
28354;BME280;15603;50.878;8.036;2024-02-26T06:55:39;142425.44;;;-3.59;100.00
28354;BME280;15603;50.878;8.036;2024-02-26T06:58:08;142415.81;;;-3.63;100.00
28354;BME280;15603;50.878;8.036;2024-02-26T07:00:35;142401.41;;;-3.69;100.00
28354;BME280;15603;50.878;8.036;2024-02-26T07:03:02;142419.44;;;-3.62;100.00
28354;BME280;15603;50.878;8.036;2024-02-26T07:05:30;142385.75;;;-3.76;100.00
28354;BME280;15603;50.878;8.036;2024-02-26T07:07:57;142427.81;;;-3.58;100.00
28354;BME280;15603;50.878;8.036;2024-02-26T07:10:24;142397.78;;;-3.71;100.00
28354;BME280;15603;50.878;8.036;2024-02-26T07:12:52;142471.13;;;-3.40;100.00
28354;BME280;15603;50.878;8.036;2024-02-26T07:15:19;142466.31;;;-3.42;100.00
28354;BME280;15603;50.878;8.036;2024-02-26T07:17:46;142456.69;;;-3.46;100.00
28354;BME280;15603;50.878;8.036;2024-02-26T07:20:15;142469.91;;;-3.40;100.00
28354;BME280;15603;50.878;8.036;2024-02-26T07:22:43;142463.88;;;-3.43;100.00
28354;BME280;15603;50.878;8.036;2024-02-26T07:25:10;142372.50;;;-3.82;100.00
28354;BME280;15603;50.878;8.036;2024-02-26T07:27:40;142461.50;;;-3.44;100.00
28354;BME280;15603;50.878;8.036;2024-02-26T07:30:07;142459.06;;;-3.45;100.00
28354;BME280;15603;50.878;8.036;2024-02-26T07:32:36;142430.22;;;-3.57;100.00
28354;BME280;15603;50.878;8.036;2024-02-26T07:35:04;142398.97;;;-3.70;100.00
28354;BME280;15603;50.878;8.036;2024-02-26T07:37:32;142457.88;;;-3.45;100.00
28354;BME280;15603;50.878;8.036;2024-02-26T07:39:59;142447.06;;;-3.50;100.00
28354;BME280;15603;50.878;8.036;2024-02-26T07:42:26;142487.97;;;-3.32;100.00
28354;BME280;15603;50.878;8.036;2024-02-26T07:44:53;142463.88;;;-3.43;100.00
28354;BME280;15603;50.878;8.036;2024-02-26T07:47:21;142471.13;;;-3.40;100.00
28354;BME280;15603;50.878;8.036;2024-02-26T07:49:48;142483.16;;;-3.34;100.00
28354;BME280;15603;50.878;8.036;2024-02-26T07:52:15;142499.94;;;-3.27;100.00
28354;BME280;15603;50.878;8.036;2024-02-26T07:54:42;142512.00;;;-3.22;100.00
28354;BME280;15603;50.878;8.036;2024-02-26T07:57:09;142507.19;;;-3.24;100.00
28354;BME280;15603;50.878;8.036;2024-02-26T07:59:37;142495.16;;;-3.29;100.00
28354;BME280;15603;50.878;8.036;2024-02-26T08:02:04;142514.41;;;-3.21;100.00
28354;BME280;15603;50.878;8.036;2024-02-26T08:04:32;142507.19;;;-3.24;100.00
28354;BME280;15603;50.878;8.036;2024-02-26T08:06:59;142516.81;;;-3.20;100.00
28354;BME280;15603;50.878;8.036;2024-02-26T08:09:27;142536.03;;;-3.12;100.00
28354;BME280;15603;50.878;8.036;2024-02-26T08:11:54;142560.13;;;-3.02;100.00
28354;BME280;15603;50.878;8.036;2024-02-26T08:14:22;142562.50;;;-3.01;100.00
28354;BME280;15603;50.878;8.036;2024-02-26T08:16:49;142560.13;;;-3.02;100.00
28354;BME280;15603;50.878;8.036;2024-02-26T08:19:16;142562.50;;;-3.01;100.00
28354;BME280;15603;50.878;8.036;2024-02-26T08:21:45;142562.50;;;-3.01;100.00
28354;BME280;15603;50.878;8.036;2024-02-26T08:24:12;142582.97;;;-2.92;100.00
28354;BME280;15603;50.878;8.036;2024-02-26T08:26:39;142585.34;;;-2.91;100.00
28354;BME280;15603;50.878;8.036;2024-02-26T08:29:06;142568.53;;;-2.98;100.00
28354;BME280;15603;50.878;8.036;2024-02-26T08:31:33;142567.31;;;-2.99;100.00
28354;BME280;15603;50.878;8.036;2024-02-26T08:34:00;142543.28;;;-3.09;100.00
28354;BME280;15603;50.878;8.036;2024-02-26T08:36:28;142558.88;;;-3.02;100.00
28354;BME280;15603;50.878;8.036;2024-02-26T08:38:56;142593.78;;;-2.87;100.00
28354;BME280;15603;50.878;8.036;2024-02-26T08:41:23;142607.03;;;-2.82;100.00
28354;BME280;15603;50.878;8.036;2024-02-26T08:43:50;142584.16;;;-2.91;100.00
28354;BME280;15603;50.878;8.036;2024-02-26T08:46:17;142588.97;;;-2.89;100.00
28354;BME280;15603;50.878;8.036;2024-02-26T08:48:45;142601.00;;;-2.84;100.00
28354;BME280;15603;50.878;8.036;2024-02-26T08:51:12;142610.63;;;-2.80;100.00
28354;BME280;15603;50.878;8.036;2024-02-26T08:53:40;142619.06;;;-2.77;100.00
28354;BME280;15603;50.878;8.036;2024-02-26T08:56:10;142598.59;;;-2.85;100.00
28354;BME280;15603;50.878;8.036;2024-02-26T08:58:45;142601.00;;;-2.84;100.00
28354;BME280;15603;50.878;8.036;2024-02-26T09:01:15;142567.31;;;-2.99;100.00
28354;BME280;15603;50.878;8.036;2024-02-26T09:03:43;142579.34;;;-2.93;100.00
28354;BME280;15603;50.878;8.036;2024-02-26T09:06:10;142543.28;;;-3.09;100.00
28354;BME280;15603;50.878;8.036;2024-02-26T09:08:40;142640.72;;;-2.67;100.00
28354;BME280;15603;50.878;8.036;2024-02-26T09:11:08;142651.53;;;-2.63;100.00
28354;BME280;15603;50.878;8.036;2024-02-26T09:13:37;142504.75;;;-3.25;100.00
28354;BME280;15603;50.878;8.036;2024-02-26T09:16:05;142573.34;;;-2.96;100.00
28354;BME280;15603;50.878;8.036;2024-02-26T09:18:32;142570.94;;;-2.97;100.00
28354;BME280;15603;50.878;8.036;2024-02-26T09:21:04;142644.31;;;-2.66;100.00
28354;BME280;15603;50.878;8.036;2024-02-26T09:23:31;142644.31;;;-2.66;100.00
28354;BME280;15603;50.878;8.036;2024-02-26T09:25:58;142653.97;;;-2.62;100.00
28354;BME280;15603;50.878;8.036;2024-02-26T09:28:25;142662.34;;;-2.58;100.00
28354;BME280;15603;50.878;8.036;2024-02-26T09:30:52;142641.91;;;-2.67;100.00
28354;BME280;15603;50.878;8.036;2024-02-26T09:33:20;142679.22;;;-2.51;100.00
28354;BME280;15603;50.878;8.036;2024-02-26T09:35:47;142659.97;;;-2.59;100.00
28354;BME280;15603;50.878;8.036;2024-02-26T09:38:15;142678.03;;;-2.51;100.00
28354;BME280;15603;50.878;8.036;2024-02-26T09:40:42;142526.41;;;-3.16;100.00
28354;BME280;15603;50.878;8.036;2024-02-26T09:43:14;142706.88;;;-2.39;100.00
28354;BME280;15603;50.878;8.036;2024-02-26T09:45:42;142758.66;;;-2.17;100.00
28354;BME280;15603;50.878;8.036;2024-02-26T09:48:10;142761.03;;;-2.16;100.00
28354;BME280;15603;50.878;8.036;2024-02-26T09:50:41;142788.72;;;-2.04;100.00
28354;BME280;15603;50.878;8.036;2024-02-26T09:53:08;142801.97;;;-1.99;100.00
28354;BME280;15603;50.878;8.036;2024-02-26T09:55:37;142797.16;;;-2.01;100.00
28354;BME280;15603;50.878;8.036;2024-02-26T09:58:05;142815.22;;;-1.93;100.00
28354;BME280;15603;50.878;8.036;2024-02-26T10:00:39;142844.13;;;-1.81;100.00
28354;BME280;15603;50.878;8.036;2024-02-26T10:03:13;142822.47;;;-1.90;100.00
28354;BME280;15603;50.878;8.036;2024-02-26T10:05:41;142818.84;;;-1.91;100.00
28354;BME280;15603;50.878;8.036;2024-02-26T10:08:11;142854.97;;;-1.76;100.00
28354;BME280;15603;50.878;8.036;2024-02-26T10:10:39;142875.44;;;-1.67;100.00
28354;BME280;15603;50.878;8.036;2024-02-26T10:13:07;142868.22;;;-1.70;100.00
28354;BME280;15603;50.878;8.036;2024-02-26T10:15:37;142918.78;;;-1.49;100.00
28354;BME280;15603;50.878;8.036;2024-02-26T10:18:06;142912.78;;;-1.51;100.00
28354;BME280;15603;50.878;8.036;2024-02-26T10:20:33;142921.22;;;-1.48;100.00
28354;BME280;15603;50.878;8.036;2024-02-26T10:23:04;142750.22;;;-2.21;100.00
28354;BME280;15603;50.878;8.036;2024-02-26T10:25:31;142856.16;;;-1.75;100.00
28354;BME280;15603;50.878;8.036;2024-02-26T10:28:01;142892.28;;;-1.60;100.00
28354;BME280;15603;50.878;8.036;2024-02-26T10:30:31;142935.66;;;-1.42;100.00
28354;BME280;15603;50.878;8.036;2024-02-26T10:32:58;142950.09;;;-1.35;100.00
28354;BME280;15603;50.878;8.036;2024-02-26T10:35:26;142966.97;;;-1.28;100.00
28354;BME280;15603;50.878;8.036;2024-02-26T10:37:55;143003.13;;;-1.13;100.00
28354;BME280;15603;50.878;8.036;2024-02-26T10:40:22;142989.84;;;-1.19;100.00
28354;BME280;15603;50.878;8.036;2024-02-26T10:42:49;142972.97;;;-1.26;100.00
28354;BME280;15603;50.878;8.036;2024-02-26T10:45:17;143003.13;;;-1.13;100.00
28354;BME280;15603;50.878;8.036;2024-02-26T10:47:44;142999.50;;;-1.14;100.00
28354;BME280;15603;50.878;8.036;2024-02-26T10:50:13;143028.38;;;-1.02;100.00
28354;BME280;15603;50.878;8.036;2024-02-26T10:52:42;143012.75;;;-1.09;100.00
28354;BME280;15603;50.878;8.036;2024-02-26T10:55:15;143024.81;;;-1.04;100.00
28354;BME280;15603;50.878;8.036;2024-02-26T10:57:44;142895.91;;;-1.59;100.00
28354;BME280;15603;50.878;8.036;2024-02-26T11:00:14;142963.34;;;-1.30;100.00
28354;BME280;15603;50.878;8.036;2024-02-26T11:02:44;143034.44;;;-1.00;100.00
28354;BME280;15603;50.878;8.036;2024-02-26T11:05:13;142950.09;;;-1.35;100.00
28354;BME280;15603;50.878;8.036;2024-02-26T11:07:41;142946.47;;;-1.37;100.00
28354;BME280;15603;50.878;8.036;2024-02-26T11:10:11;143000.69;;;-1.14;100.00
28354;BME280;15603;50.878;8.036;2024-02-26T11:12:39;143010.31;;;-1.10;100.00
28354;BME280;15603;50.878;8.036;2024-02-26T11:15:07;143048.88;;;-0.93;100.00
28354;BME280;15603;50.878;8.036;2024-02-26T11:17:36;143047.69;;;-0.94;100.00
28354;BME280;15603;50.878;8.036;2024-02-26T11:20:09;143023.56;;;-1.04;100.00
28354;BME280;15603;50.878;8.036;2024-02-26T11:22:38;143117.56;;;-0.64;100.00
28354;BME280;15603;50.878;8.036;2024-02-26T11:25:06;143099.50;;;-0.72;100.00
28354;BME280;15603;50.878;8.036;2024-02-26T11:27:38;143129.63;;;-0.59;100.00
28354;BME280;15603;50.878;8.036;2024-02-26T11:30:09;143041.66;;;-0.96;100.00
28354;BME280;15603;50.878;8.036;2024-02-26T11:32:37;143147.72;;;-0.51;100.00
28354;BME280;15603;50.878;8.036;2024-02-26T11:35:05;143207.97;;;-0.26;100.00
28354;BME280;15603;50.878;8.036;2024-02-26T11:37:34;143140.47;;;-0.54;100.00
28354;BME280;15603;50.878;8.036;2024-02-26T11:40:11;143340.59;;;0.31;100.00
28354;BME280;15603;50.878;8.036;2024-02-26T11:42:45;143388.88;;;0.51;100.00
28354;BME280;15603;50.878;8.036;2024-02-26T11:45:47;143379.22;;;0.47;100.00
28354;BME280;15603;50.878;8.036;2024-02-26T11:55:33;143179.06;;;-0.38;100.00
28354;BME280;15603;50.878;8.036;2024-02-26T11:58:25;143157.34;;;-0.47;100.00
28354;BME280;15603;50.878;8.036;2024-02-26T12:00:58;143132.03;;;-0.58;100.00
28354;BME280;15603;50.878;8.036;2024-02-26T12:03:25;143138.09;;;-0.55;100.00
28354;BME280;15603;50.878;8.036;2024-02-26T12:05:52;143110.38;;;-0.67;100.00
28354;BME280;15603;50.878;8.036;2024-02-26T12:08:20;143063.34;;;-0.87;100.00
28354;BME280;15603;50.878;8.036;2024-02-26T12:10:48;143138.09;;;-0.55;100.00
28354;BME280;15603;50.878;8.036;2024-02-26T12:13:16;143204.34;;;-0.27;100.00
28354;BME280;15603;50.878;8.036;2024-02-26T12:15:55;143232.13;;;-0.15;100.00
28354;BME280;15603;50.878;8.036;2024-02-26T12:18:23;143256.22;;;-0.05;100.00
28354;BME280;15603;50.878;8.036;2024-02-26T12:21:00;143270.69;;;0.01;100.00
28354;BME280;15603;50.878;8.036;2024-02-26T12:23:28;143299.59;;;0.13;100.00
28354;BME280;15603;50.878;8.036;2024-02-26T12:25:59;143297.22;;;0.12;100.00
28354;BME280;15603;50.878;8.036;2024-02-26T12:28:29;143321.31;;;0.23;99.39
28354;BME280;15603;50.878;8.036;2024-02-26T12:30:57;143217.63;;;-0.22;100.00
28354;BME280;15603;50.878;8.036;2024-02-26T12:33:27;143287.56;;;0.08;100.00
28354;BME280;15603;50.878;8.036;2024-02-26T12:35:56;143309.28;;;0.17;100.00
28354;BME280;15603;50.878;8.036;2024-02-26T12:38:24;143277.94;;;0.04;100.00
28354;BME280;15603;50.878;8.036;2024-02-26T12:40:51;143229.69;;;-0.16;100.00
28354;BME280;15603;50.878;8.036;2024-02-26T12:43:18;143252.59;;;-0.07;100.00
28354;BME280;15603;50.878;8.036;2024-02-26T12:45:45;143268.28;;;0.00;100.00
28354;BME280;15603;50.878;8.036;2024-02-26T12:48:14;143244.16;;;-0.10;100.00
28354;BME280;15603;50.878;8.036;2024-02-26T12:50:48;143205.59;;;-0.27;100.00
28354;BME280;15603;50.878;8.036;2024-02-26T12:53:15;143230.88;;;-0.16;100.00
28354;BME280;15603;50.878;8.036;2024-02-26T12:55:42;143236.94;;;-0.13;100.00
28354;BME280;15603;50.878;8.036;2024-02-26T12:58:11;143227.25;;;-0.17;100.00